SBRB/RBR METAR and TAF weather

Enter ICAO airport designator
Station Type Date Time Source
SBRB METAR 2022/11/27 08:00 UTC NOAA

SBRB 270800Z 33002KT CAVOK 23/22 Q1010


Station Type Date Time Source
SBRB Decoded METAR 2022/11/27 08:00 UTC NOAA

Rio Branco, Brazil (SBRB) 10-00S 067-48W 143M
Nov 27, 2022 - 03:00 AM EST / 2022.11.27 0800 UTC
Wind: from the NNW (330 degrees) at 2 MPH (2 KT):0
Visibility: greater than 7 mile(s):0
Temperature: 73 F (23 C)
Dew Point: 71 F (22 C)
Relative Humidity: 94%
Pressure (altimeter): 29.83 in. Hg (1010 hPa)
ob: SBRB 270800Z 33002KT CAVOK 23/22 Q1010
cycle: 8

Station Type Date Time Source
SBRB TAF 2022/11/27 06:48 UTC NOAA

TAF SBRB 270045Z 2706/2718 31003KT 9999 SCT025 TN23/2709Z TX34/2718Z PROB40 2707/2711 4000 BR BKN005
BECMG 2713/2715 31007KT SCT020 FEW030TCU
RMK PGU

Example: see airport list